Time;durP1;ratioP1;P1;durP2;ratioP2;P2;SDS_P1;SDS_P2;PMS_P1;PMS_P2;Temp;Humidity;BMP_temperature;BMP_pressure;BME280_temperature;BME280_humidity;BME280_pressure;Samples;Min_cycle;Max_cycle;Signal;HPM_P1;HPM_P2
2021/06/04 00:01:16;;;;;;;21.42;16.23;;;;;;;19.63;70.46;100376.50;5017829;28;20038;-56
2021/06/04 00:03:42;;;;;;;22.00;17.05;;;;;;;19.61;70.65;100376.56;5017132;28;20045;-56
2021/06/04 00:06:09;;;;;;;19.83;16.15;;;;;;;19.61;70.93;100366.03;5015857;28;20584;-56
2021/06/04 00:08:35;;;;;;;19.85;16.50;;;;;;;19.60;70.77;100374.81;5017098;28;20038;-56
2021/06/04 00:11:30;;;;;;;22.67;16.83;;;;;;;19.58;70.58;100367.81;5016021;28;20400;-54
2021/06/04 00:14:00;;;;;;;;;;;;;;;19.54;70.63;100374.91;5018001;28;20038;-56
2021/06/04 00:16:33;;;;;;;21.27;16.52;;;;;;;19.56;70.94;100377.47;5017224;28;19917;-56
2021/06/04 00:19:01;;;;;;;21.80;17.60;;;;;;;19.56;70.75;100372.22;5017149;28;20033;-56
2021/06/04 00:21:33;;;;;;;24.15;17.75;;;;;;;19.55;70.69;100360.88;5016456;28;20512;-56
2021/06/04 00:24:00;;;;;;;21.92;16.85;;;;;;;19.56;70.90;100357.34;5017018;28;20074;-56
2021/06/04 00:26:26;;;;;;;21.05;16.70;;;;;;;19.55;70.87;100354.72;5015713;28;20088;-56
2021/06/04 00:28:52;;;;;;;18.33;15.30;;;;;;;19.54;71.03;100353.88;5016801;28;20084;-56
2021/06/04 00:31:20;;;;;;;22.15;15.98;;;;;;;19.53;70.86;100346.03;5016924;28;20057;-56
2021/06/04 00:33:49;;;;;;;22.75;17.95;;;;;;;19.53;70.98;100348.66;5016231;28;20033;-56
2021/06/04 00:36:15;;;;;;;19.17;15.38;;;;;;;19.52;70.80;100344.28;5016672;28;20523;-56
2021/06/04 00:38:41;;;;;;;19.35;15.93;;;;;;;19.51;70.90;100347.81;5016473;28;20034;-56
2021/06/04 00:41:15;;;;;;;19.77;16.27;;;;;;;19.51;70.89;100351.28;5016362;28;20030;-56
2021/06/04 00:43:40;;;;;;;20.55;16.63;;;;;;;19.51;70.82;100342.53;5016703;28;20076;-56
2021/06/04 00:46:07;;;;;;;19.60;16.17;;;;;;;19.52;70.88;100346.91;5016173;28;20041;-56
2021/06/04 00:48:35;;;;;;;21.52;17.00;;;;;;;19.52;71.09;100341.66;5015751;28;20505;-56
2021/06/04 00:51:07;;;;;;;25.48;17.20;;;;;;;19.50;70.85;100349.53;5016499;28;20080;-56
2021/06/04 00:53:34;;;;;;;21.52;16.80;;;;;;;19.50;71.04;100348.69;5016315;28;20481;-56
2021/06/04 00:56:00;;;;;;;19.67;16.02;;;;;;;19.48;70.95;100341.69;5015135;28;20037;-56
2021/06/04 00:58:30;;;;;;;22.00;15.50;;;;;;;19.47;70.92;100341.69;5016262;28;20121;-56
2021/06/04 01:00:59;;;;;;;21.98;16.55;;;;;;;19.46;71.10;100337.38;5016568;28;20037;-56
2021/06/04 01:03:30;;;;;;;25.67;16.85;;;;;;;19.45;71.07;100336.47;5016421;28;20188;-55
2021/06/04 01:06:07;;;;;;;20.45;15.25;;;;;;;19.45;70.83;100346.16;5016470;28;20549;-54
2021/06/04 01:08:55;;;;;;;21.73;17.40;;;;;;;19.42;70.74;100349.66;5016043;28;20060;-54
2021/06/04 01:11:26;;;;;;;19.00;15.45;;;;;;;19.42;70.79;100352.28;5015746;28;20041;-56
2021/06/04 01:13:57;;;;;;;22.45;16.98;;;;;;;19.42;70.90;100351.44;5015894;28;20079;-56
2021/06/04 01:16:31;;;;;;;22.70;16.25;;;;;;;19.41;70.81;100352.34;5016184;28;20473;-56
2021/06/04 01:19:03;;;;;;;;;;;;;;;19.37;70.78;100355.88;5016639;28;20033;-56
2021/06/04 01:21:47;;;;;;;20.45;15.40;;;;;;;19.36;71.01;100351.53;5015524;28;20384;-56
2021/06/04 01:24:36;;;;;;;21.52;15.73;;;;;;;19.35;70.65;100350.66;5015945;28;20128;-56
2021/06/04 01:27:08;;;;;;;17.45;15.32;;;;;;;19.35;71.25;100355.03;5014703;28;20398;-56
2021/06/04 01:29:39;;;;;;;17.63;15.80;;;;;;;19.34;70.97;100354.19;5015870;28;20120;-56
2021/06/04 01:32:29;;;;;;;17.48;14.85;;;;;;;19.32;70.89;100364.69;5015631;28;20045;-56
2021/06/04 01:35:00;;;;;;;19.00;15.90;;;;;;;19.33;71.15;100355.06;5008473;28;20053;-56
2021/06/04 01:37:31;;;;;;;19.23;14.73;;;;;;;19.33;71.33;100360.34;5014678;28;20041;-56
2021/06/04 01:40:09;;;;;;;17.63;15.57;;;;;;;19.33;71.11;100355.06;5014396;28;20038;-56
2021/06/04 01:42:38;;;;;;;16.45;14.82;;;;;;;19.31;70.92;100346.34;5014132;28;20417;-56
2021/06/04 01:45:13;;;;;;;21.75;15.50;;;;;;;19.30;70.92;100349.84;5015395;28;20030;-55
2021/06/04 01:47:45;;;;;;;17.38;14.63;;;;;;;19.28;71.31;100341.13;5014726;28;20030;-56
2021/06/04 01:50:11;;;;;;;16.27;14.52;;;;;;;19.27;71.38;100345.53;5015741;28;20516;-56
2021/06/04 01:52:39;;;;;;;18.92;15.25;;;;;;;19.26;71.16;100338.53;5015506;28;20038;-56
2021/06/04 01:55:10;;;;;;;18.98;14.98;;;;;;;19.24;71.09;100342.94;5013993;28;20042;-56
2021/06/04 01:57:47;;;;;;;21.90;15.00;;;;;;;19.21;71.03;100344.75;5014828;28;20046;-56
2021/06/04 02:00:19;;;;;;;19.05;14.63;;;;;;;19.21;71.25;100339.50;5015464;28;20041;-55
2021/06/04 02:02:45;;;;;;;20.83;16.67;;;;;;;19.21;70.94;100344.75;5013773;28;20046;-56
2021/06/04 02:05:13;;;;;;;17.83;14.52;;;;;;;19.21;71.27;100344.75;5014693;28;20118;-55
2021/06/04 02:07:42;;;;;;;17.08;14.55;;;;;;;19.20;70.95;100343.03;4997325;28;20493;-54
2021/06/04 02:10:12;;;;;;;16.10;14.38;;;;;;;19.20;71.13;100343.88;5013782;28;20029;-56
2021/06/04 02:12:39;;;;;;;17.98;14.00;;;;;;;19.19;71.03;100342.13;5015206;28;20034;-56
2021/06/04 02:15:18;;;;;;;17.30;14.70;;;;;;;19.17;71.12;100341.28;5013586;28;20493;-56
2021/06/04 02:18:06;;;;;;;17.08;15.18;;;;;;;19.16;70.79;100348.31;5015107;28;20115;-56
2021/06/04 02:20:44;;;;;;;18.52;15.77;;;;;;;19.15;71.02;100350.97;5013608;28;20088;-56
2021/06/04 02:23:36;;;;;;;18.10;14.82;;;;;;;19.13;70.97;100350.13;5014805;28;20399;-56
2021/06/04 02:26:14;;;;;;;19.23;16.50;;;;;;;19.11;71.10;100358.00;5014937;28;20117;-56
2021/06/04 02:29:17;;;;;;;19.38;16.42;;;;;;;19.10;71.07;100358.03;5013753;28;20042;-56
2021/06/04 02:31:45;;;;;;;17.77;15.20;;;;;;;19.09;70.93;100358.94;5015071;28;20091;-56
2021/06/04 02:34:32;;;;;;;22.05;16.15;;;;;;;19.07;71.07;100364.22;5014274;28;20048;-56
2021/06/04 02:37:04;;;;;;;23.77;17.15;;;;;;;19.08;71.25;100359.81;5014654;28;20038;-56
2021/06/04 02:39:48;;;;;;;21.77;16.95;;;;;;;19.04;71.08;100366.88;5014303;28;20049;-56
2021/06/04 02:42:48;;;;;;;21.70;17.35;;;;;;;19.02;71.17;100364.25;5013041;28;20042;-56
2021/06/04 02:45:34;;;;;;;21.25;18.42;;;;;;;19.01;71.20;100359.03;4980780;28;20061;-54
2021/06/04 02:48:07;;;;;;;22.02;17.48;;;;;;;19.01;71.18;100364.28;5014325;28;20080;-54
2021/06/04 02:50:44;;;;;;;23.67;17.58;;;;;;;18.99;71.34;100363.44;5015040;28;20118;-55
2021/06/04 02:53:18;;;;;;;21.65;17.35;;;;;;;18.97;71.26;100371.34;5014541;28;20054;-54
2021/06/04 02:56:14;;;;;;;21.27;17.42;;;;;;;18.97;71.15;100376.59;5014162;28;20473;-54
2021/06/04 02:58:43;;;;;;;21.15;18.60;;;;;;;18.95;71.37;100373.13;5013319;28;20124;-55
2021/06/04 03:01:10;;;;;;;21.77;16.95;;;;;;;18.94;71.33;100370.47;5013802;28;20053;-55
2021/06/04 03:03:37;;;;;;;20.00;17.95;;;;;;;18.92;71.38;100367.03;5013993;28;20050;-55
2021/06/04 03:06:04;;;;;;;18.95;17.02;;;;;;;18.90;71.46;100376.69;5013985;28;20050;-55
2021/06/04 03:08:33;;;;;;;23.48;18.58;;;;;;;18.89;71.26;100370.53;5013616;28;20042;-55
2021/06/04 03:10:59;;;;;;;23.40;18.23;;;;;;;18.87;71.29;100361.81;5012771;28;20041;-55
2021/06/04 03:13:29;;;;;;;21.48;19.02;;;;;;;18.84;71.37;100352.22;5013929;28;20034;-55
2021/06/04 03:15:58;;;;;;;22.15;17.80;;;;;;;18.83;71.25;100355.75;5012786;28;20481;-55
2021/06/04 03:18:28;;;;;;;22.92;17.92;;;;;;;18.81;71.26;100364.53;5012210;28;20045;-55
2021/06/04 03:20:54;;;;;;;21.65;18.05;;;;;;;18.81;71.31;100368.00;5013854;28;20041;-55
2021/06/04 03:23:24;;;;;;;21.17;18.38;;;;;;;18.80;71.35;100363.66;5013325;28;20375;-55
2021/06/04 03:25:53;;;;;;;23.58;18.08;;;;;;;18.79;71.28;100364.53;5012862;28;20042;-55
2021/06/04 03:28:23;;;;;;;19.95;16.67;;;;;;;18.80;71.40;100365.41;5012761;28;20026;-55
2021/06/04 03:30:48;;;;;;;21.02;18.25;;;;;;;18.80;71.33;100365.41;5013914;28;20124;-54
2021/06/04 03:33:19;;;;;;;24.95;18.30;;;;;;;18.79;71.43;100372.41;5012523;28;20184;-55
2021/06/04 03:35:46;;;;;;;21.90;16.58;;;;;;;18.79;71.28;100368.94;5012120;28;20048;-54
2021/06/04 03:38:13;;;;;;;19.67;16.90;;;;;;;18.76;71.24;100372.47;5012190;28;20034;-54
2021/06/04 03:40:39;;;;;;;20.38;17.67;;;;;;;18.75;71.17;100365.50;5013888;28;20033;-54
2021/06/04 03:43:08;;;;;;;21.65;17.48;;;;;;;18.75;71.19;100375.97;5013597;28;20040;-55
2021/06/04 03:45:38;;;;;;;20.00;16.40;;;;;;;18.75;71.26;100375.09;5012502;28;20041;-56
2021/06/04 03:48:06;;;;;;;20.30;17.48;;;;;;;18.72;71.23;100381.28;5013454;28;20436;-54
2021/06/04 03:50:32;;;;;;;19.08;17.08;;;;;;;18.72;71.25;100386.53;5013020;28;20044;-55
2021/06/04 03:52:57;;;;;;;22.70;17.67;;;;;;;18.72;71.28;100382.13;5013800;28;20489;-55
2021/06/04 03:55:25;;;;;;;22.92;18.02;;;;;;;18.69;71.15;100384.78;5013288;28;20045;-56
2021/06/04 03:57:51;;;;;;;25.85;18.08;;;;;;;18.68;71.24;100387.44;5013411;28;20034;-56
2021/06/04 04:00:36;;;;;;;20.27;16.10;;;;;;;18.66;71.17;100381.34;5012249;28;20038;-56
2021/06/04 04:03:02;;;;;;;;;;;;;;;18.63;71.24;100384.88;4996166;28;20084;-55
2021/06/04 04:05:28;;;;;;;19.88;17.73;;;;;;;18.65;71.49;100385.72;5013485;28;19921;-54
2021/06/04 04:07:54;;;;;;;22.33;18.42;;;;;;;18.65;71.22;100382.22;4995995;28;20425;-55
2021/06/04 04:10:25;;;;;;;19.23;17.13;;;;;;;18.64;71.25;100376.13;5013065;28;20497;-54
2021/06/04 04:12:50;;;;;;;20.52;17.00;;;;;;;18.65;71.17;100376.97;5013014;28;20056;-54
2021/06/04 04:15:17;;;;;;;21.40;18.65;;;;;;;18.64;71.35;100383.09;5013313;28;20038;-54
2021/06/04 04:17:50;;;;;;;19.67;17.08;;;;;;;18.64;71.20;100380.47;5012848;28;20087;-54
2021/06/04 04:20:21;;;;;;;24.38;17.77;;;;;;;18.63;71.18;100389.25;5013492;28;20532;-54
2021/06/04 04:22:46;;;;;;;19.90;17.60;;;;;;;18.63;71.18;100389.25;5013478;28;20061;-54
2021/06/04 04:25:13;;;;;;;19.85;17.67;;;;;;;18.63;71.21;100389.25;5013322;28;20065;-55
2021/06/04 04:27:39;;;;;;;22.52;18.05;;;;;;;18.63;71.22;100390.13;5013242;28;20030;-55
2021/06/04 04:30:07;;;;;;;20.65;17.85;;;;;;;18.63;71.20;100389.25;5014879;28;20144;-55
2021/06/04 04:32:33;;;;;;;20.42;16.80;;;;;;;18.63;71.55;100383.97;5017098;28;20037;-55
2021/06/04 04:34:59;;;;;;;22.70;17.40;;;;;;;18.63;71.31;100387.50;5016798;28;20042;-55
2021/06/04 04:37:24;;;;;;;21.83;16.58;;;;;;;18.63;70.98;100390.13;5015196;28;20052;-55
2021/06/04 04:39:49;;;;;;;24.48;18.63;;;;;;;18.65;71.53;100400.59;5016921;28;20157;-55
2021/06/04 04:42:19;;;;;;;25.73;18.27;;;;;;;18.63;71.46;100397.09;5016539;28;20485;-55
2021/06/04 04:44:46;;;;;;;19.42;17.23;;;;;;;18.63;71.47;100392.75;5016680;28;20133;-54
2021/06/04 04:47:19;;;;;;;22.80;18.77;;;;;;;18.63;71.28;100400.63;5016345;28;20033;-55
2021/06/04 04:49:45;;;;;;;20.00;17.90;;;;;;;18.64;71.71;100397.09;5016861;28;20052;-56
2021/06/04 04:52:12;;;;;;;22.80;18.60;;;;;;;18.65;71.64;100403.22;5016578;28;20030;-56
2021/06/04 04:54:44;;;;;;;22.35;19.48;;;;;;;18.67;71.61;100406.69;4998750;28;20453;-55
2021/06/04 04:57:11;;;;;;;22.13;18.92;;;;;;;18.66;71.62;100402.34;4998825;28;20042;-56
2021/06/04 04:59:37;;;;;;;22.80;19.08;;;;;;;18.67;71.55;100401.44;5014808;28;20560;-55
2021/06/04 05:02:03;;;;;;;22.17;17.90;;;;;;;18.67;71.47;100397.09;5015025;28;20125;-56
2021/06/04 05:04:29;;;;;;;26.30;19.63;;;;;;;18.69;71.49;100407.56;5015304;28;20037;-56
2021/06/04 05:06:54;;;;;;;22.50;19.33;;;;;;;18.70;71.58;100412.78;5016445;28;20034;-56
2021/06/04 05:09:20;;;;;;;20.85;17.83;;;;;;;18.70;71.59;100404.91;4998905;28;20073;-56
2021/06/04 05:11:47;;;;;;;22.80;18.25;;;;;;;18.71;71.53;100398.75;5016133;28;20036;-56
2021/06/04 05:14:13;;;;;;;24.13;19.65;;;;;;;18.71;71.53;100404.00;5015986;28;20057;-56
2021/06/04 05:16:39;;;;;;;20.10;17.17;;;;;;;18.71;71.65;100397.91;5014890;28;20474;-56
2021/06/04 05:19:05;;;;;;;25.58;18.58;;;;;;;18.73;71.45;100404.00;5016207;28;20034;-55
2021/06/04 05:21:32;;;;;;;25.92;19.42;;;;;;;18.73;71.76;100401.38;5016168;28;20124;-55
2021/06/04 05:23:58;;;;;;;23.10;19.67;;;;;;;18.75;71.59;100403.97;5015985;28;20120;-56
2021/06/04 05:26:23;;;;;;;23.52;19.60;;;;;;;18.76;71.92;100406.59;5015420;28;20511;-55
2021/06/04 05:28:49;;;;;;;24.02;19.38;;;;;;;18.77;71.65;100404.84;5014629;28;20030;-54
2021/06/04 05:31:16;;;;;;;21.98;19.08;;;;;;;18.79;71.88;100411.78;5016005;28;20041;-55
2021/06/04 05:33:45;;;;;;;26.13;19.95;;;;;;;18.79;71.71;100411.78;5015880;28;20034;-54
2021/06/04 05:36:21;;;;;;;25.25;18.92;;;;;;;18.80;71.53;100404.81;5015686;28;20046;-54
2021/06/04 05:38:48;;;;;;;22.95;19.52;;;;;;;18.82;71.92;100409.13;5015294;28;20064;-56
2021/06/04 05:41:14;;;;;;;25.25;19.95;;;;;;;18.83;71.76;100413.50;5014680;28;20041;-56
2021/06/04 05:43:41;;;;;;;20.75;18.25;;;;;;;18.85;71.89;100410.84;5015225;28;20034;-56
2021/06/04 05:46:10;;;;;;;22.27;19.08;;;;;;;18.85;71.86;100409.09;5015184;28;20080;-56
2021/06/04 05:48:37;;;;;;;24.17;19.50;;;;;;;18.87;71.96;100412.59;5014535;28;20106;-55
2021/06/04 05:51:07;;;;;;;23.77;20.02;;;;;;;18.88;71.84;100410.81;5014245;28;20041;-56
2021/06/04 05:53:35;;;;;;;22.52;19.60;;;;;;;18.90;71.94;100406.41;4997631;28;20087;-56
2021/06/04 05:56:02;;;;;;;23.08;19.35;;;;;;;18.92;72.13;100415.16;4997591;28;20038;-56
2021/06/04 05:58:28;;;;;;;24.83;19.02;;;;;;;18.93;72.20;100411.63;5015049;28;20030;-56
2021/06/04 06:00:57;;;;;;;21.30;17.98;;;;;;;18.95;72.13;100409.00;5014083;28;20038;-56
2021/06/04 06:03:29;;;;;;;22.25;18.25;;;;;;;18.96;72.03;100416.88;5014964;28;20050;-56
2021/06/04 06:05:56;;;;;;;24.13;19.83;;;;;;;18.97;71.87;100417.75;5014029;28;20045;-56
2021/06/04 06:08:21;;;;;;;21.30;17.75;;;;;;;18.98;72.02;100412.50;5014525;28;20065;-56
2021/06/04 06:10:47;;;;;;;22.17;19.50;;;;;;;18.99;72.14;100413.34;5015000;28;20128;-56
2021/06/04 06:13:15;;;;;;;21.83;19.30;;;;;;;19.00;72.00;100413.31;5014983;28;20033;-56
2021/06/04 06:15:42;;;;;;;26.27;19.15;;;;;;;19.02;72.15;100415.94;5015270;28;20088;-56
2021/06/04 06:18:09;;;;;;;25.63;20.77;;;;;;;19.04;72.09;100419.41;5014939;28;20034;-56
2021/06/04 06:20:40;;;;;;;22.80;17.60;;;;;;;19.05;71.91;100413.28;5013669;28;20080;-56
2021/06/04 06:23:09;;;;;;;28.60;21.30;;;;;;;19.07;72.03;100408.00;5014806;28;20030;-56
2021/06/04 06:25:42;;;;;;;27.75;21.77;;;;;;;19.08;71.97;100410.59;5014807;28;20034;-55
2021/06/04 06:28:13;;;;;;;29.05;23.67;;;;;;;19.10;72.24;100411.44;5014944;28;20034;-56
2021/06/04 06:30:39;;;;;;;30.35;23.63;;;;;;;19.13;72.08;100415.78;5014466;28;20401;-56
2021/06/04 06:33:06;;;;;;;28.05;22.15;;;;;;;19.13;72.11;100411.41;4997057;28;20037;-56
2021/06/04 06:35:38;;;;;;;33.63;24.60;;;;;;;19.15;71.92;100414.88;5013217;28;20447;-56
2021/06/04 06:38:04;;;;;;;31.08;24.13;;;;;;;19.17;72.02;100420.97;5014632;28;20034;-56
2021/06/04 06:40:30;;;;;;;32.20;23.88;;;;;;;19.20;72.28;100422.69;5014617;28;20045;-56
2021/06/04 06:42:56;;;;;;;38.97;26.80;;;;;;;19.21;72.10;100427.06;5014625;28;20033;-56
2021/06/04 06:45:27;;;;;;;35.88;26.67;;;;;;;19.24;72.10;100428.75;5013066;28;20030;-56
2021/06/04 06:47:54;;;;;;;39.22;28.02;;;;;;;19.26;72.25;100419.09;5014390;28;20172;-56
2021/06/04 06:50:30;;;;;;;35.38;28.08;;;;;;;19.28;72.47;100422.59;5012907;28;20524;-56
2021/06/04 06:52:57;;;;;;;39.92;28.17;;;;;;;19.30;72.45;100412.91;5013523;28;20049;-56
2021/06/04 06:55:23;;;;;;;36.85;29.20;;;;;;;19.32;72.43;100421.66;5012690;28;20168;-56
2021/06/04 06:57:49;;;;;;;36.92;29.83;;;;;;;19.33;72.37;100407.63;5013831;28;20037;-56
2021/06/04 07:00:23;;;;;;;39.47;27.65;;;;;;;19.33;72.27;100412.88;5012877;28;20404;-56
2021/06/04 07:02:48;;;;;;;39.35;27.88;;;;;;;19.35;72.20;100415.47;5014355;28;20374;-56
2021/06/04 07:05:14;;;;;;;37.72;26.10;;;;;;;19.35;72.34;100416.38;5014099;28;20044;-56
2021/06/04 07:07:40;;;;;;;35.83;28.00;;;;;;;19.37;72.18;100413.69;5014230;28;20038;-56
2021/06/04 07:10:09;;;;;;;32.00;25.98;;;;;;;19.38;72.25;100415.44;5013138;28;20042;-56
2021/06/04 07:12:35;;;;;;;35.20;25.42;;;;;;;19.39;72.29;100419.81;5014196;28;20042;-56
2021/06/04 07:15:07;;;;;;;33.33;25.08;;;;;;;19.39;72.35;100412.78;5013851;28;20053;-56
2021/06/04 07:17:32;;;;;;;36.17;26.92;;;;;;;19.41;72.14;100418.03;5012768;28;20088;-56
2021/06/04 07:19:58;;;;;;;32.53;25.20;;;;;;;19.42;72.33;100420.63;5012560;28;20033;-56
2021/06/04 07:22:23;;;;;;;32.30;25.00;;;;;;;19.42;72.33;100410.13;5014218;28;20033;-56
2021/06/04 07:24:48;;;;;;;29.58;24.67;;;;;;;19.43;72.08;100425.00;5013725;28;20038;-56
2021/06/04 07:27:15;;;;;;;35.42;27.40;;;;;;;19.43;72.21;100430.25;5013954;28;20041;-56
2021/06/04 07:29:42;;;;;;;35.15;25.73;;;;;;;19.43;72.24;100437.28;5013960;28;20030;-56
2021/06/04 07:32:07;;;;;;;35.97;24.88;;;;;;;19.43;72.16;100438.13;5012849;28;20101;-56
2021/06/04 07:34:33;;;;;;;31.63;25.73;;;;;;;19.43;72.17;100438.13;5014093;28;20033;-56
2021/06/04 07:37:00;;;;;;;32.25;25.35;;;;;;;19.44;72.12;100441.66;5013484;28;20034;-56
2021/06/04 07:39:33;;;;;;;38.17;26.92;;;;;;;19.45;72.04;100435.50;5013498;28;20026;-56
2021/06/04 07:42:00;;;;;;;32.67;24.50;;;;;;;19.46;72.26;100431.97;5012219;28;20034;-56
2021/06/04 07:44:28;;;;;;;31.92;22.80;;;;;;;19.48;72.08;100430.16;5013713;28;20088;-56
2021/06/04 07:46:56;;;;;;;32.05;22.35;;;;;;;19.50;72.29;100424.91;5013392;28;20065;-56
2021/06/04 07:49:23;;;;;;;30.90;23.00;;;;;;;19.50;72.04;100427.53;5012137;28;20037;-56
2021/06/04 07:51:55;;;;;;;29.70;22.02;;;;;;;19.52;72.02;100431.03;5013828;28;20077;-56
2021/06/04 07:54:23;;;;;;;31.33;24.20;;;;;;;19.52;71.92;100429.25;5013458;28;20045;-57
2021/06/04 07:56:49;;;;;;;38.30;25.60;;;;;;;19.55;71.94;100426.56;5012466;28;20044;-57
2021/06/04 07:59:14;;;;;;;39.30;26.85;;;;;;;19.57;72.13;100426.53;5011731;28;20037;-58
2021/06/04 08:01:40;;;;;;;39.63;26.15;;;;;;;19.58;72.04;100423.03;5013365;28;20116;-58
2021/06/04 08:04:07;;;;;;;34.20;27.83;;;;;;;19.60;72.02;100423.88;5013632;28;20042;-57
2021/06/04 08:06:35;;;;;;;38.40;27.05;;;;;;;19.61;72.00;100428.25;5017354;28;20066;-57
2021/06/04 08:09:01;;;;;;;35.75;25.90;;;;;;;19.62;72.09;100425.56;5017534;28;20034;-57
2021/06/04 08:11:33;;;;;;;36.80;27.40;;;;;;;19.65;72.15;100426.44;5015745;28;20447;-56
2021/06/04 08:14:00;;;;;;;36.25;27.27;;;;;;;19.67;71.84;100419.38;5017161;28;20034;-56
2021/06/04 08:16:27;;;;;;;37.88;27.48;;;;;;;19.69;71.90;100422.88;5017235;28;20045;-57
2021/06/04 08:18:53;;;;;;;36.45;27.25;;;;;;;19.69;71.89;100418.50;5017112;28;20033;-56
2021/06/04 08:21:23;;;;;;;41.63;27.27;;;;;;;19.69;71.97;100421.13;5016722;28;20087;-56
2021/06/04 08:23:49;;;;;;;39.53;27.20;;;;;;;19.71;72.15;100421.09;5016069;28;20038;-56
2021/06/04 08:26:19;;;;;;;37.50;27.17;;;;;;;19.73;71.97;100432.44;5015807;28;20060;-56
2021/06/04 08:28:45;;;;;;;40.17;27.98;;;;;;;19.75;72.01;100420.16;5015505;28;20041;-56
2021/06/04 08:31:11;;;;;;;42.17;30.98;;;;;;;19.77;71.94;100426.25;5015784;28;20474;-56
2021/06/04 08:33:39;;;;;;;40.17;28.83;;;;;;;19.80;71.84;100427.97;5017140;28;20034;-56
2021/06/04 08:36:09;;;;;;;42.85;32.53;;;;;;;19.82;72.29;100420.91;5016739;28;20044;-56
2021/06/04 08:38:40;;;;;;;43.97;31.65;;;;;;;19.86;72.24;100425.22;5016363;28;20080;-56
2021/06/04 08:41:41;;;;;;;44.80;31.58;;;;;;;19.89;72.09;100433.09;5015106;28;20088;-56
2021/06/04 08:44:27;;;;;;;43.28;30.05;;;;;;;19.92;72.05;100433.03;5008269;28;20049;-55
2021/06/04 08:47:14;;;;;;;43.33;33.10;;;;;;;19.94;72.07;100428.63;5016361;28;20046;-56
2021/06/04 08:49:57;;;;;;;45.65;32.08;;;;;;;19.97;72.02;100430.31;5016396;28;20503;-56
2021/06/04 08:52:44;;;;;;;45.53;34.33;;;;;;;19.98;72.01;100427.69;5017011;28;20037;-56
2021/06/04 08:55:32;;;;;;;43.33;32.72;;;;;;;20.00;72.01;100415.38;5016658;28;20037;-56
2021/06/04 08:58:01;;;;;;;45.13;33.53;;;;;;;20.02;71.99;100424.09;5014989;28;20489;-56
2021/06/04 09:00:40;;;;;;;46.67;35.95;;;;;;;20.05;72.30;100424.03;5015465;28;20038;-57
2021/06/04 09:03:21;;;;;;;44.78;35.80;;;;;;;20.08;71.93;100429.25;5016243;28;20427;-57
2021/06/04 09:06:01;;;;;;;40.00;32.72;;;;;;;20.11;72.12;100424.84;5015019;28;20033;-57
2021/06/04 09:08:31;;;;;;;48.78;37.20;;;;;;;20.14;72.20;100425.66;4998362;28;20104;-57
2021/06/04 09:11:15;;;;;;;45.60;35.47;;;;;;;20.18;72.12;100421.19;5015027;28;20370;-57
2021/06/04 09:13:41;;;;;;;46.22;34.58;;;;;;;20.20;72.21;100412.41;5016319;28;20034;-57
2021/06/04 09:16:26;;;;;;;50.92;35.78;;;;;;;20.24;72.21;100421.09;5014984;28;20033;-57
2021/06/04 09:19:08;;;;;;;46.03;36.25;;;;;;;20.27;72.19;100418.41;5016025;28;20034;-57
2021/06/04 09:21:38;;;;;;;51.13;36.35;;;;;;;20.31;72.46;100419.22;5014906;28;20030;-57
2021/06/04 09:24:09;;;;;;;46.35;36.42;;;;;;;20.34;72.28;100411.28;5015837;28;20064;-57
2021/06/04 09:26:35;;;;;;;50.65;36.30;;;;;;;20.35;72.23;100408.59;5014460;28;20033;-57
2021/06/04 09:29:06;;;;;;;54.35;37.90;;;;;;;20.38;72.34;100400.66;5015888;28;20038;-57
2021/06/04 09:31:54;;;;;;;53.25;38.92;;;;;;;20.41;72.20;100397.09;5014533;28;20064;-57
2021/06/04 09:34:26;;;;;;;57.60;39.08;;;;;;;20.45;72.32;100403.19;5015575;28;20042;-57
2021/06/04 09:37:06;;;;;;;51.83;39.67;;;;;;;20.46;72.17;100392.59;5008339;28;20061;-56
2021/06/04 09:39:49;;;;;;;49.38;38.20;;;;;;;20.48;72.23;100393.44;4974535;28;20038;-57
2021/06/04 09:42:26;;;;;;;49.03;39.15;;;;;;;20.51;72.31;100387.25;4975162;28;20035;-56
2021/06/04 09:45:03;;;;;;;55.22;41.17;;;;;;;20.51;72.17;100393.41;4959549;28;20442;-57
2021/06/04 09:47:37;;;;;;;53.20;40.45;;;;;;;20.54;72.28;100398.59;4976310;28;20403;-57
2021/06/04 09:50:33;;;;;;;55.97;38.70;;;;;;;20.58;72.38;100388.88;4976213;28;20038;-57
2021/06/04 09:53:08;;;;;;;57.53;40.65;;;;;;;20.60;72.26;100389.72;4975133;28;20398;-57
2021/06/04 09:55:42;;;;;;;53.83;41.88;;;;;;;20.63;72.49;100394.03;4974790;28;20039;-57
2021/06/04 09:58:17;;;;;;;56.40;41.05;;;;;;;20.64;72.34;100394.00;4976348;28;20047;-57
2021/06/04 10:00:50;;;;;;;55.97;41.22;;;;;;;20.64;72.43;100386.09;4975811;28;20060;-57
2021/06/04 10:03:34;;;;;;;55.10;44.93;;;;;;;20.62;72.24;100382.66;4975951;28;20054;-57
2021/06/04 10:06:09;;;;;;;56.47;44.72;;;;;;;20.62;72.19;100376.50;4975206;28;20047;-56
2021/06/04 10:08:55;;;;;;;59.83;45.30;;;;;;;20.62;72.13;100385.28;4975775;28;20039;-57
2021/06/04 10:11:31;;;;;;;54.63;41.10;;;;;;;20.62;72.08;100368.59;4975376;28;20039;-57
2021/06/04 10:14:20;;;;;;;57.95;44.90;;;;;;;20.64;72.27;100374.72;4976301;28;20035;-57
2021/06/04 10:19:50;;;;;;;56.33;42.13;;;;;;;20.68;72.66;100366.72;4975771;28;20035;-57
2021/06/04 10:22:28;;;;;;;58.60;43.40;;;;;;;20.70;72.58;100361.44;4974603;28;20038;-57
2021/06/04 10:25:00;;;;;;;54.53;41.90;;;;;;;20.75;72.24;100362.22;4975797;28;20434;-57
2021/06/04 10:27:25;;;;;;;55.00;41.25;;;;;;;20.77;72.54;100359.56;4975136;28;20042;-57
2021/06/04 10:30:03;;;;;;;55.72;41.53;;;;;;;20.81;72.52;100358.56;4975626;28;20057;-57
2021/06/04 10:32:39;;;;;;;58.03;42.80;;;;;;;20.86;72.48;100362.00;4959184;28;20041;-57
2021/06/04 10:35:26;;;;;;;54.15;41.67;;;;;;;20.91;72.59;100354.88;4975761;28;20097;-57
2021/06/04 10:38:04;;;;;;;58.38;44.45;;;;;;;20.92;72.49;100348.69;4974653;28;20494;-55
2021/06/04 10:40:49;;;;;;;50.72;41.42;;;;;;;20.92;72.44;100347.81;4973886;28;20035;-56
2021/06/04 10:43:39;;;;;;;52.65;40.08;;;;;;;20.95;72.33;100339.84;4974384;28;20035;-56
2021/06/04 10:46:15;;;;;;;50.90;41.33;;;;;;;20.94;72.39;100336.34;4975579;28;20067;-56
2021/06/04 10:49:15;;;;;;;50.53;39.00;;;;;;;20.97;72.32;100336.28;4973986;28;20081;-56
2021/06/04 10:51:53;;;;;;;51.33;42.03;;;;;;;20.98;72.38;100350.31;4975159;28;20054;-56
2021/06/04 10:54:51;;;;;;;45.38;38.15;;;;;;;21.00;72.40;100343.25;4975435;28;20038;-56
2021/06/04 10:57:37;;;;;;;48.78;39.63;;;;;;;21.02;72.40;100337.94;4974019;28;20050;-56
2021/06/04 11:00:14;;;;;;;50.08;38.28;;;;;;;21.02;72.42;100336.16;4975252;28;20125;-56
2021/06/04 11:03:06;;;;;;;53.88;39.85;;;;;;;21.04;72.56;100338.78;4973820;28;20066;-56
2021/06/04 11:05:50;;;;;;;50.55;38.08;;;;;;;21.04;72.39;100336.16;4974895;28;20494;-56
2021/06/04 11:08:52;;;;;;;47.53;37.92;;;;;;;21.03;72.38;100334.41;4974246;28;20570;-56
2021/06/04 11:11:30;;;;;;;43.95;35.42;;;;;;;21.03;72.05;100324.72;4974143;28;20121;-57
2021/06/04 11:13:55;;;;;;;42.97;36.70;;;;;;;21.04;72.16;100321.19;4974824;28;20430;-55
2021/06/04 11:16:32;;;;;;;46.70;37.38;;;;;;;21.06;72.07;100322.03;4973473;28;20053;-56
2021/06/04 11:19:47;;;;;;;46.90;36.70;;;;;;;21.09;72.19;100311.41;4974826;28;20570;-57
2021/06/04 11:22:24;;;;;;;42.20;35.85;;;;;;;21.09;72.20;100306.16;4951446;28;20042;-56
2021/06/04 11:25:27;;;;;;;48.13;36.83;;;;;;;21.13;72.24;100312.19;4973907;28;20117;-56
2021/06/04 11:28:20;;;;;;;45.45;35.70;;;;;;;21.13;72.17;100302.53;4972561;28;20049;-57
2021/06/04 11:31:01;;;;;;;44.03;33.65;;;;;;;21.17;72.26;100300.69;4974615;28;20070;-56
2021/06/04 11:33:31;;;;;;;47.22;35.38;;;;;;;21.18;72.26;100283.97;4974624;28;20046;-56
2021/06/04 11:36:07;;;;;;;48.78;35.97;;;;;;;21.19;72.10;100283.09;4974894;28;20498;-56